Time,TemperatureF,DewpointF,PressureIn,WindDirection,WindDirectionDegrees,WindSpeedMPH,WindSpeedGustMPH,Humidity,HourlyPrecipIn,Conditions,Clouds,dailyrainin,SoftwareType,DateUTC
2013-01-28 00:00:00,60.2,54.7,29.75,SW,221,0.0,5.0,82,0.00,,,0.00,Custom v0.1,2013-01-28 06:00:00,
2013-01-28 00:10:00,60.1,54.6,29.75,SSW,207,0.0,5.0,82,0.00,,,0.00,Custom v0.1,2013-01-28 06:10:00,
2013-01-28 00:15:00,59.9,54.8,29.75,South,182,0.0,5.0,83,0.00,,,0.00,Custom v0.1,2013-01-28 06:15:00,
2013-01-28 00:20:00,59.8,54.7,29.75,SSW,196,0.0,5.0,83,0.00,,,0.00,Custom v0.1,2013-01-28 06:20:00,
2013-01-28 00:25:00,59.6,54.5,29.75,South,183,0.0,5.0,83,0.00,,,0.00,Custom v0.1,2013-01-28 06:25:00,
2013-01-28 00:30:00,59.3,54.5,29.75,SSW,203,0.0,5.0,84,0.00,,,0.00,Custom v0.1,2013-01-28 06:30:00,
2013-01-28 00:35:00,59.3,54.5,29.74,South,190,0.0,5.0,84,0.00,,,0.00,Custom v0.1,2013-01-28 06:35:00,
2013-01-28 00:40:00,59.2,54.4,29.74,South,190,1.0,5.0,84,0.00,,,0.00,Custom v0.1,2013-01-28 06:40:00,
2013-01-28 00:45:00,59.2,54.4,29.74,South,188,5.0,5.0,84,0.00,,,0.00,Custom v0.1,2013-01-28 06:45:00,
2013-01-28 00:50:00,59.2,54.4,29.74,South,182,0.0,0.0,84,0.00,,,0.00,Custom v0.1,2013-01-28 06:50:00,
2013-01-28 00:55:00,59.2,54.4,29.74,SSW,212,0.0,3.0,84,0.00,,,0.00,Custom v0.1,2013-01-28 06:55:00,
2013-01-28 01:00:00,59.2,54.4,29.74,SSW,207,0.0,1.0,84,0.00,,,0.00,Custom v0.1,2013-01-28 07:00:00,
2013-01-28 01:05:00,59.5,54.7,29.74,SSW,202,0.0,2.0,84,0.00,,,0.00,Custom v0.1,2013-01-28 07:05:00,
2013-01-28 01:10:00,59.6,54.8,29.74,SSW,193,2.0,6.0,84,0.00,,,0.00,Custom v0.1,2013-01-28 07:10:00,
2013-01-28 01:15:00,59.6,54.8,29.74,SSW,193,0.0,0.0,84,0.00,,,0.00,Custom v0.1,2013-01-28 07:15:00,
2013-01-28 01:20:00,59.6,54.8,29.73,SW,233,7.0,7.0,84,0.00,,,0.00,Custom v0.1,2013-01-28 07:20:00,
2013-01-28 01:30:00,59.8,55.0,29.73,South,185,8.0,8.0,84,0.00,,,0.00,Custom v0.1,2013-01-28 07:30:00,
2013-01-28 01:35:00,59.9,55.1,29.73,SSW,207,4.0,4.0,84,0.00,,,0.00,Custom v0.1,2013-01-28 07:35:00,
2013-01-28 01:40:00,60.1,55.3,29.73,South,175,0.0,1.0,84,0.00,,,0.00,Custom v0.1,2013-01-28 07:40:00,
2013-01-28 01:45:00,60.1,54.9,29.73,SSW,210,0.0,0.0,83,0.00,,,0.00,Custom v0.1,2013-01-28 07:45:00,
2013-01-28 01:55:00,60.4,55.2,29.73,SSW,203,0.0,0.0,83,0.00,,,0.00,Custom v0.1,2013-01-28 07:55:00,
2013-01-28 02:00:00,60.5,55.3,29.73,SSW,213,0.0,4.0,83,0.00,,,0.00,Custom v0.1,2013-01-28 08:00:00,
2013-01-28 02:05:00,60.5,55.3,29.73,SSW,195,4.0,4.0,83,0.00,,,0.00,Custom v0.1,2013-01-28 08:05:00,
2013-01-28 02:15:00,60.7,55.5,29.73,SSW,200,0.0,0.0,83,0.00,,,0.00,Custom v0.1,2013-01-28 08:15:00,
2013-01-28 02:20:00,60.7,55.5,29.73,SSW,210,0.0,0.0,83,0.00,,,0.00,Custom v0.1,2013-01-28 08:20:00,
2013-01-28 02:25:00,60.5,55.3,29.73,South,188,5.0,5.0,83,0.00,,,0.00,Custom v0.1,2013-01-28 08:25:00,
2013-01-28 02:30:00,60.5,55.3,29.73,SSE,162,0.0,4.0,83,0.00,,,0.00,Custom v0.1,2013-01-28 08:30:00,
2013-01-28 02:40:00,60.4,55.6,29.73,South,182,0.0,0.0,84,0.00,,,0.00,Custom v0.1,2013-01-28 08:40:00,
2013-01-28 02:50:00,60.4,55.2,29.73,South,182,0.0,0.0,83,0.00,,,0.00,Custom v0.1,2013-01-28 08:50:00,
2013-01-28 02:55:00,60.4,55.2,29.73,SW,227,6.0,6.0,83,0.00,,,0.00,Custom v0.1,2013-01-28 08:55:00,
2013-01-28 03:05:00,60.5,55.3,29.73,South,180,6.0,6.0,83,0.00,,,0.00,Custom v0.1,2013-01-28 09:05:00,
2013-01-28 03:10:00,60.7,55.5,29.73,SW,223,5.0,5.0,83,0.00,,,0.00,Custom v0.1,2013-01-28 09:10:00,
2013-01-28 03:15:00,60.9,55.7,29.73,SW,220,5.0,5.0,83,0.00,,,0.00,Custom v0.1,2013-01-28 09:15:00,
2013-01-28 03:20:00,60.9,55.4,29.73,SSW,206,5.0,5.0,82,0.00,,,0.00,Custom v0.1,2013-01-28 09:20:00,
2013-01-28 03:30:00,60.9,55.4,29.73,SSW,197,0.0,0.0,82,0.00,,,0.00,Custom v0.1,2013-01-28 09:30:00,
2013-01-28 03:35:00,60.7,55.2,29.73,SSW,196,0.0,0.0,82,0.00,,,0.00,Custom v0.1,2013-01-28 09:35:00,
2013-01-28 03:45:00,60.5,55.3,29.73,SSW,192,0.0,0.0,83,0.00,,,0.00,Custom v0.1,2013-01-28 09:45:00,
2013-01-28 03:50:00,60.4,55.2,29.73,South,186,0.0,0.0,83,0.00,,,0.00,Custom v0.1,2013-01-28 09:50:00,
2013-01-28 04:00:00,60.1,55.3,29.73,SSW,195,0.0,0.0,84,0.00,,,0.00,Custom v0.1,2013-01-28 10:00:00,
2013-01-28 04:05:00,59.9,55.1,29.74,SSW,203,0.0,0.0,84,0.00,,,0.00,Custom v0.1,2013-01-28 10:05:00,
2013-01-28 04:10:00,59.9,55.1,29.74,SSW,206,0.0,0.0,84,0.00,,,0.00,Custom v0.1,2013-01-28 10:10:00,
2013-01-28 04:15:00,59.8,55.0,29.74,SSW,193,0.0,0.0,84,0.00,,,0.00,Custom v0.1,2013-01-28 10:15:00,
2013-01-28 04:20:00,59.6,54.8,29.74,SSW,193,0.0,0.0,84,0.00,,,0.00,Custom v0.1,2013-01-28 10:20:00,
2013-01-28 04:25:00,59.5,55.0,29.74,SSW,193,0.0,0.0,85,0.00,,,0.00,Custom v0.1,2013-01-28 10:25:00,
2013-01-28 04:30:00,59.3,54.8,29.74,SSW,193,0.0,0.0,85,0.00,,,0.00,Custom v0.1,2013-01-28 10:30:00,
2013-01-28 04:35:00,59.2,54.7,29.74,SSW,193,0.0,0.0,85,0.00,,,0.00,Custom v0.1,2013-01-28 10:35:00,
2013-01-28 04:40:00,59.0,54.5,29.74,SSW,192,0.0,0.0,85,0.00,,,0.00,Custom v0.1,2013-01-28 10:40:00,
2013-01-28 04:45:00,58.9,54.7,29.74,SSW,192,0.0,0.0,86,0.00,,,0.00,Custom v0.1,2013-01-28 10:45:00,
2013-01-28 04:50:00,58.7,54.5,29.74,SSW,192,0.0,0.0,86,0.00,,,0.00,Custom v0.1,2013-01-28 10:50:00,
2013-01-28 04:55:00,58.7,54.5,29.74,SSW,192,0.0,0.0,86,0.00,,,0.00,Custom v0.1,2013-01-28 10:55:00,
2013-01-28 05:00:00,58.6,54.4,29.74,SSW,192,0.0,0.0,86,0.00,,,0.00,Custom v0.1,2013-01-28 11:00:00,
2013-01-28 05:05:00,58.6,54.4,29.74,SSW,192,0.0,0.0,86,0.00,,,0.00,Custom v0.1,2013-01-28 11:05:00,
2013-01-28 05:10:00,58.4,54.2,29.74,SSW,192,0.0,0.0,86,0.00,,,0.00,Custom v0.1,2013-01-28 11:10:00,
2013-01-28 05:15:00,58.4,54.2,29.74,SSW,192,0.0,0.0,86,0.00,,,0.00,Custom v0.1,2013-01-28 11:15:00,
2013-01-28 05:20:00,58.3,54.1,29.74,SSW,192,0.0,0.0,86,0.00,,,0.00,Custom v0.1,2013-01-28 11:20:00,
2013-01-28 05:30:00,58.1,54.2,29.74,SSW,192,0.0,0.0,87,0.00,,,0.00,Custom v0.1,2013-01-28 11:30:00,
2013-01-28 05:35:00,58.0,54.1,29.74,SSW,192,0.0,0.0,87,0.00,,,0.00,Custom v0.1,2013-01-28 11:35:00,
2013-01-28 05:45:00,57.8,54.2,29.74,SSE,164,0.0,0.0,88,0.00,,,0.00,Custom v0.1,2013-01-28 11:45:00,
2013-01-28 05:50:00,57.6,54.1,29.74,SSE,164,0.0,0.0,88,0.00,,,0.00,Custom v0.1,2013-01-28 11:50:00,
2013-01-28 05:55:00,57.5,54.0,29.74,SSE,164,0.0,0.0,88,0.00,,,0.00,Custom v0.1,2013-01-28 11:55:00,
2013-01-28 06:00:00,57.5,54.0,29.74,SSE,164,0.0,0.0,88,0.00,,,0.00,Custom v0.1,2013-01-28 12:00:00,
2013-01-28 06:10:00,57.3,53.8,29.74,SSE,164,0.0,0.0,88,0.00,,,0.00,Custom v0.1,2013-01-28 12:10:00,
2013-01-28 06:15:00,57.3,53.8,29.74,SSE,164,0.0,0.0,88,0.00,,,0.00,Custom v0.1,2013-01-28 12:15:00,
2013-01-28 06:20:00,57.2,53.7,29.74,SSE,164,0.0,0.0,88,0.00,,,0.00,Custom v0.1,2013-01-28 12:20:00,
2013-01-28 06:25:00,57.0,53.5,29.74,SSE,164,0.0,0.0,88,0.00,,,0.00,Custom v0.1,2013-01-28 12:25:00,
2013-01-28 06:30:00,56.9,53.4,29.74,SSE,164,0.0,0.0,88,0.00,,,0.00,Custom v0.1,2013-01-28 12:30:00,
2013-01-28 06:35:00,56.9,53.4,29.75,SSE,164,0.0,0.0,88,0.00,,,0.00,Custom v0.1,2013-01-28 12:35:00,
2013-01-28 06:45:00,56.9,53.4,29.75,SSE,164,0.0,0.0,88,0.00,,,0.00,Custom v0.1,2013-01-28 12:45:00,
2013-01-28 06:50:00,56.9,53.4,29.75,SSE,164,0.0,0.0,88,0.00,,,0.00,Custom v0.1,2013-01-28 12:50:00,
2013-01-28 06:55:00,56.9,53.4,29.75,SSE,164,0.0,0.0,88,0.00,,,0.00,Custom v0.1,2013-01-28 12:55:00,
2013-01-28 07:00:00,56.7,53.5,29.75,SSE,164,0.0,0.0,89,0.00,,,0.00,Custom v0.1,2013-01-28 13:00:00,
2013-01-28 07:05:00,56.7,53.2,29.75,SSE,164,0.0,0.0,88,0.00,,,0.00,Custom v0.1,2013-01-28 13:05:00,
2013-01-28 07:10:00,56.7,53.2,29.75,SSE,164,0.0,0.0,88,0.00,,,0.00,Custom v0.1,2013-01-28 13:10:00,
2013-01-28 07:15:00,56.6,53.4,29.75,SSE,164,0.0,0.0,89,0.00,,,0.00,Custom v0.1,2013-01-28 13:15:00,
2013-01-28 07:20:00,56.6,53.4,29.75,SSE,164,0.0,0.0,89,0.00,,,0.00,Custom v0.1,2013-01-28 13:20:00,
2013-01-28 07:25:00,56.7,53.5,29.75,SSE,164,0.0,0.0,89,0.00,,,0.00,Custom v0.1,2013-01-28 13:25:00,
2013-01-28 07:30:00,56.9,53.7,29.75,SSE,164,0.0,0.0,89,0.00,,,0.00,Custom v0.1,2013-01-28 13:30:00,
2013-01-28 07:35:00,56.9,53.7,29.75,SSE,164,0.0,0.0,89,0.00,,,0.00,Custom v0.1,2013-01-28 13:35:00,
2013-01-28 07:40:00,56.9,53.7,29.75,SSE,164,0.0,0.0,89,0.00,,,0.00,Custom v0.1,2013-01-28 13:40:00,
2013-01-28 07:45:00,57.0,53.8,29.75,SSE,164,0.0,0.0,89,0.00,,,0.00,Custom v0.1,2013-01-28 13:45:00,
2013-01-28 07:50:00,57.0,53.8,29.76,SSE,164,0.0,0.0,89,0.00,,,0.00,Custom v0.1,2013-01-28 13:50:00,
2013-01-28 07:55:00,57.2,54.0,29.76,SSE,164,0.0,0.0,89,0.00,,,0.00,Custom v0.1,2013-01-28 13:55:00,
2013-01-28 08:00:00,57.2,54.0,29.76,SSE,164,0.0,0.0,89,0.00,,,0.00,Custom v0.1,2013-01-28 14:00:00,
2013-01-28 08:05:00,57.2,54.0,29.76,SSE,164,0.0,0.0,89,0.00,,,0.00,Custom v0.1,2013-01-28 14:05:00,
2013-01-28 08:10:00,57.3,54.1,29.76,SSE,164,0.0,0.0,89,0.00,,,0.00,Custom v0.1,2013-01-28 14:10:00,
2013-01-28 08:15:00,57.3,54.1,29.76,SSE,164,0.0,0.0,89,0.00,,,0.00,Custom v0.1,2013-01-28 14:15:00,
2013-01-28 08:20:00,57.3,54.1,29.76,SSE,164,0.0,0.0,89,0.00,,,0.00,Custom v0.1,2013-01-28 14:20:00,
2013-01-28 08:25:00,57.5,54.3,29.76,SSE,164,0.0,0.0,89,0.00,,,0.00,Custom v0.1,2013-01-28 14:25:00,
2013-01-28 08:30:00,57.5,54.3,29.76,SSE,164,0.0,0.0,89,0.00,,,0.00,Custom v0.1,2013-01-28 14:30:00,
2013-01-28 08:35:00,57.5,54.3,29.76,SSE,164,0.0,0.0,89,0.00,,,0.00,Custom v0.1,2013-01-28 14:35:00,
2013-01-28 08:40:00,57.6,54.4,29.76,SSE,164,0.0,0.0,89,0.00,,,0.00,Custom v0.1,2013-01-28 14:40:00,
2013-01-28 08:45:00,57.6,54.4,29.76,SSE,164,0.0,0.0,89,0.00,,,0.00,Custom v0.1,2013-01-28 14:45:00,
2013-01-28 08:50:00,57.8,54.2,29.76,SSE,164,0.0,0.0,88,0.00,,,0.00,Custom v0.1,2013-01-28 14:50:00,
2013-01-28 08:55:00,58.0,54.4,29.76,SSE,164,0.0,0.0,88,0.00,,,0.00,Custom v0.1,2013-01-28 14:55:00,
2013-01-28 09:00:00,58.0,54.4,29.76,SSE,164,0.0,0.0,88,0.00,,,0.00,Custom v0.1,2013-01-28 15:00:00,
2013-01-28 09:05:00,58.1,54.5,29.76,SSE,164,0.0,0.0,88,0.00,,,0.00,Custom v0.1,2013-01-28 15:05:00,
2013-01-28 09:10:00,58.1,54.5,29.76,SSE,164,0.0,0.0,88,0.00,,,0.00,Custom v0.1,2013-01-28 15:10:00,
2013-01-28 09:15:00,58.3,54.7,29.76,SSE,164,0.0,0.0,88,0.00,,,0.00,Custom v0.1,2013-01-28 15:15:00,
2013-01-28 09:25:00,58.4,54.8,29.76,SSE,164,0.0,0.0,88,0.00,,,0.00,Custom v0.1,2013-01-28 15:25:00,
2013-01-28 09:35:00,58.7,55.1,29.76,SSE,164,0.0,0.0,88,0.00,,,0.00,Custom v0.1,2013-01-28 15:35:00,
2013-01-28 09:40:00,58.9,55.0,29.76,SSE,164,0.0,0.0,87,0.00,,,0.00,Custom v0.1,2013-01-28 15:40:00,
2013-01-28 09:45:00,59.0,55.1,29.76,SSE,164,0.0,0.0,87,0.00,,,0.00,Custom v0.1,2013-01-28 15:45:00,
2013-01-28 09:50:00,59.2,55.3,29.76,SSE,164,0.0,0.0,87,0.00,,,0.00,Custom v0.1,2013-01-28 15:50:00,
2013-01-28 09:55:00,59.5,55.6,29.76,SSE,164,0.0,0.0,87,0.00,,,0.00,Custom v0.1,2013-01-28 15:55:00,
2013-01-28 10:00:00,59.8,55.6,29.76,SSE,164,0.0,0.0,86,0.00,,,0.00,Custom v0.1,2013-01-28 16:00:00,
2013-01-28 10:05:00,59.9,55.7,29.76,SSE,164,0.0,0.0,86,0.00,,,0.00,Custom v0.1,2013-01-28 16:05:00,
2013-01-28 10:10:00,60.2,56.0,29.76,SSE,164,0.0,0.0,86,0.00,,,0.00,Custom v0.1,2013-01-28 16:10:00,
2013-01-28 10:15:00,60.5,56.3,29.76,SSE,164,0.0,0.0,86,0.00,,,0.00,Custom v0.1,2013-01-28 16:15:00,
2013-01-28 10:20:00,61.0,56.5,29.76,SSE,164,0.0,0.0,85,0.00,,,0.00,Custom v0.1,2013-01-28 16:20:00,
2013-01-28 10:25:00,61.3,56.4,29.76,SSE,164,0.0,0.0,84,0.00,,,0.00,Custom v0.1,2013-01-28 16:25:00,
2013-01-28 10:30:00,61.8,56.9,29.76,SSE,162,0.0,0.0,84,0.00,,,0.00,Custom v0.1,2013-01-28 16:30:00,
2013-01-28 10:35:00,62.4,57.2,29.75,SSE,162,3.0,3.0,83,0.00,,,0.00,Custom v0.1,2013-01-28 16:35:00,
2013-01-28 10:40:00,62.9,57.4,29.75,SSE,149,0.0,0.0,82,0.00,,,0.00,Custom v0.1,2013-01-28 16:40:00,
2013-01-28 10:50:00,64.3,58.1,29.75,SSW,193,5.0,5.0,80,0.00,,,0.00,Custom v0.1,2013-01-28 16:50:00,
2013-01-28 10:55:00,65.2,58.9,29.75,South,176,0.0,0.0,80,0.00,,,0.00,Custom v0.1,2013-01-28 16:55:00,
2013-01-28 11:00:00,66.1,59.1,29.75,South,182,6.0,6.0,78,0.00,,,0.00,Custom v0.1,2013-01-28 17:00:00,
2013-01-28 11:05:00,67.1,59.4,29.74,South,176,0.0,0.0,76,0.00,,,0.00,Custom v0.1,2013-01-28 17:05:00,
2013-01-28 11:10:00,67.4,59.3,29.74,SSW,206,0.0,3.0,75,0.00,,,0.00,Custom v0.1,2013-01-28 17:10:00,
2013-01-28 11:15:00,67.9,59.4,29.74,SW,231,6.0,6.0,74,0.00,,,0.00,Custom v0.1,2013-01-28 17:15:00,
2013-01-28 11:20:00,68.4,59.6,29.74,SSW,195,5.0,10.0,73,0.00,,,0.00,Custom v0.1,2013-01-28 17:20:00,
2013-01-28 11:25:00,68.9,59.3,29.74,SW,223,4.0,4.0,71,0.00,,,0.00,Custom v0.1,2013-01-28 17:25:00,
2013-01-28 11:30:00,69.6,59.2,29.74,WSW,257,6.0,6.0,69,0.00,,,0.00,Custom v0.1,2013-01-28 17:30:00,
2013-01-28 11:35:00,69.8,58.9,29.73,SW,227,21.0,21.0,68,0.00,,,0.00,Custom v0.1,2013-01-28 17:35:00,
2013-01-28 11:40:00,70.4,58.7,29.73,SW,219,0.0,0.0,66,0.00,,,0.00,Custom v0.1,2013-01-28 17:40:00,
2013-01-28 11:45:00,70.8,58.6,29.73,SSW,209,0.0,4.0,65,0.00,,,0.00,Custom v0.1,2013-01-28 17:45:00,
2013-01-28 11:50:00,70.8,58.2,29.72,South,180,0.0,3.0,64,0.00,,,0.00,Custom v0.1,2013-01-28 17:50:00,
2013-01-28 11:55:00,70.9,58.3,29.72,SSW,213,5.0,5.0,64,0.00,,,0.00,Custom v0.1,2013-01-28 17:55:00,
2013-01-28 12:05:00,71.3,58.2,29.71,South,186,8.0,18.0,63,0.00,,,0.00,Custom v0.1,2013-01-28 18:05:00,
2013-01-28 12:15:00,72.1,58.6,29.71,SW,227,8.0,11.0,62,0.00,,,0.00,Custom v0.1,2013-01-28 18:15:00,
2013-01-28 12:20:00,71.5,58.0,29.70,SW,216,4.0,11.0,62,0.00,,,0.00,Custom v0.1,2013-01-28 18:20:00,
2013-01-28 12:25:00,71.3,58.2,29.70,SSE,159,3.0,6.0,63,0.00,,,0.00,Custom v0.1,2013-01-28 18:25:00,
2013-01-28 12:30:00,71.8,57.8,29.70,SSW,197,0.0,6.0,61,0.00,,,0.00,Custom v0.1,2013-01-28 18:30:00,
2013-01-28 12:35:00,72.0,58.0,29.69,SSW,204,10.0,10.0,61,0.00,,,0.00,Custom v0.1,2013-01-28 18:35:00,
2013-01-28 12:40:00,72.3,57.8,29.69,SW,228,8.0,8.0,60,0.00,,,0.00,Custom v0.1,2013-01-28 18:40:00,
2013-01-28 12:45:00,72.5,58.0,29.69,SSW,203,14.0,14.0,60,0.00,,,0.00,Custom v0.1,2013-01-28 18:45:00,
2013-01-28 12:50:00,72.8,57.8,29.68,SW,217,20.0,20.0,59,0.00,,,0.00,Custom v0.1,2013-01-28 18:50:00,
2013-01-28 12:55:00,73.2,57.7,29.68,South,183,16.0,16.0,58,0.00,,,0.00,Custom v0.1,2013-01-28 18:55:00,
2013-01-28 13:00:00,73.0,57.5,29.68,SSW,210,18.0,18.0,58,0.00,,,0.00,Custom v0.1,2013-01-28 19:00:00,
2013-01-28 13:05:00,73.3,57.3,29.67,SSW,200,13.0,13.0,57,0.00,,,0.00,Custom v0.1,2013-01-28 19:05:00,
2013-01-28 13:10:00,73.3,57.3,29.67,SSW,210,5.0,6.0,57,0.00,,,0.00,Custom v0.1,2013-01-28 19:10:00,
2013-01-28 13:15:00,73.0,58.0,29.67,WSW,237,4.0,6.0,59,0.00,,,0.00,Custom v0.1,2013-01-28 19:15:00,
2013-01-28 13:20:00,72.8,57.8,29.67,SW,217,5.0,6.0,59,0.00,,,0.00,Custom v0.1,2013-01-28 19:20:00,
2013-01-28 13:25:00,73.5,57.0,29.67,SW,233,17.0,17.0,56,0.00,,,0.00,Custom v0.1,2013-01-28 19:25:00,
2013-01-28 13:30:00,73.7,57.2,29.67,SSW,202,20.0,20.0,56,0.00,,,0.00,Custom v0.1,2013-01-28 19:30:00,
2013-01-28 13:35:00,73.7,57.2,29.66,SW,230,2.0,6.0,56,0.00,,,0.00,Custom v0.1,2013-01-28 19:35:00,
2013-01-28 13:40:00,73.9,57.4,29.66,SW,216,16.0,16.0,56,0.00,,,0.00,Custom v0.1,2013-01-28 19:40:00,
2013-01-28 13:45:00,74.0,57.5,29.66,SSW,195,10.0,10.0,56,0.00,,,0.00,Custom v0.1,2013-01-28 19:45:00,
2013-01-28 13:50:00,74.2,57.1,29.65,SSE,166,16.0,16.0,55,0.00,,,0.00,Custom v0.1,2013-01-28 19:50:00,
2013-01-28 13:55:00,73.7,57.2,29.65,South,189,3.0,6.0,56,0.00,,,0.00,Custom v0.1,2013-01-28 19:55:00,
2013-01-28 14:00:00,73.7,57.2,29.65,South,189,14.0,14.0,56,0.00,,,0.00,Custom v0.1,2013-01-28 20:00:00,
2013-01-28 14:05:00,74.0,57.0,29.65,SW,231,14.0,14.0,55,0.00,,,0.00,Custom v0.1,2013-01-28 20:05:00,
2013-01-28 14:15:00,73.9,57.9,29.65,SSW,200,6.0,6.0,57,0.00,,,0.00,Custom v0.1,2013-01-28 20:15:00,
2013-01-28 14:20:00,73.9,57.9,29.64,South,182,10.0,10.0,57,0.00,,,0.00,Custom v0.1,2013-01-28 20:20:00,
2013-01-28 14:25:00,73.5,57.5,29.64,SSW,193,5.0,6.0,57,0.00,,,0.00,Custom v0.1,2013-01-28 20:25:00,
2013-01-28 14:30:00,73.3,57.8,29.64,South,189,20.0,20.0,58,0.00,,,0.00,Custom v0.1,2013-01-28 20:30:00,
2013-01-28 14:35:00,73.3,57.8,29.65,SW,224,6.0,6.0,58,0.00,,,0.00,Custom v0.1,2013-01-28 20:35:00,
2013-01-28 14:40:00,73.5,58.0,29.65,South,178,6.0,6.0,58,0.00,,,0.00,Custom v0.1,2013-01-28 20:40:00,
2013-01-28 14:45:00,73.5,58.0,29.65,SSW,200,8.0,8.0,58,0.00,,,0.00,Custom v0.1,2013-01-28 20:45:00,
2013-01-28 14:50:00,73.7,58.2,29.64,SW,221,17.0,17.0,58,0.00,,,0.00,Custom v0.1,2013-01-28 20:50:00,
2013-01-28 14:55:00,73.7,58.7,29.64,SSW,213,19.0,19.0,59,0.00,,,0.00,Custom v0.1,2013-01-28 20:55:00,
2013-01-28 15:00:00,73.7,59.1,29.64,WSW,243,25.0,25.0,60,0.00,,,0.00,Custom v0.1,2013-01-28 21:00:00,
2013-01-28 15:05:00,73.5,59.0,29.64,SSW,195,0.0,6.0,60,0.00,,,0.00,Custom v0.1,2013-01-28 21:05:00,
2013-01-28 15:10:00,73.2,59.6,29.64,South,189,10.0,10.0,62,0.00,,,0.00,Custom v0.1,2013-01-28 21:10:00,
2013-01-28 15:15:00,73.0,59.9,29.64,South,176,6.0,6.0,63,0.00,,,0.00,Custom v0.1,2013-01-28 21:15:00,
2013-01-28 15:20:00,72.7,60.0,29.65,SW,226,7.0,7.0,64,0.00,,,0.00,Custom v0.1,2013-01-28 21:20:00,
2013-01-28 15:25:00,72.7,60.0,29.65,SSW,195,5.0,5.0,64,0.00,,,0.00,Custom v0.1,2013-01-28 21:25:00,
2013-01-28 15:30:00,72.8,60.1,29.65,SSW,213,10.0,10.0,64,0.00,,,0.00,Custom v0.1,2013-01-28 21:30:00,
2013-01-28 15:40:00,72.8,60.1,29.65,SW,214,8.0,8.0,64,0.00,,,0.00,Custom v0.1,2013-01-28 21:40:00,
2013-01-28 15:45:00,72.7,60.5,29.65,SSW,213,2.0,3.0,65,0.00,,,0.00,Custom v0.1,2013-01-28 21:45:00,
2013-01-28 15:50:00,72.3,60.1,29.64,SSW,213,18.0,21.0,65,0.00,,,0.00,Custom v0.1,2013-01-28 21:50:00,
2013-01-28 15:55:00,72.3,60.1,29.64,WSW,241,13.0,13.0,65,0.00,,,0.00,Custom v0.1,2013-01-28 21:55:00,
2013-01-28 16:00:00,72.3,60.1,29.64,SW,226,8.0,8.0,65,0.00,,,0.00,Custom v0.1,2013-01-28 22:00:00,
2013-01-28 16:10:00,72.3,60.1,29.64,SSE,159,2.0,6.0,65,0.00,,,0.00,Custom v0.1,2013-01-28 22:10:00,
2013-01-28 16:15:00,72.3,60.1,29.64,SSW,207,5.0,7.0,65,0.00,,,0.00,Custom v0.1,2013-01-28 22:15:00,
2013-01-28 16:20:00,72.1,59.9,29.63,SSE,165,6.0,6.0,65,0.00,,,0.00,Custom v0.1,2013-01-28 22:20:00,
2013-01-28 16:25:00,72.1,59.9,29.63,SW,217,1.0,4.0,65,0.00,,,0.00,Custom v0.1,2013-01-28 22:25:00,
2013-01-28 16:30:00,72.1,59.9,29.63,South,175,14.0,14.0,65,0.00,,,0.00,Custom v0.1,2013-01-28 22:30:00,
2013-01-28 16:35:00,72.1,59.9,29.62,SSW,193,0.0,8.0,65,0.00,,,0.00,Custom v0.1,2013-01-28 22:35:00,
2013-01-28 16:40:00,72.1,59.9,29.62,SSW,213,5.0,5.0,65,0.00,,,0.00,Custom v0.1,2013-01-28 22:40:00,
2013-01-28 16:45:00,72.1,59.9,29.62,SW,231,6.0,6.0,65,0.00,,,0.00,Custom v0.1,2013-01-28 22:45:00,
2013-01-28 16:50:00,72.1,59.5,29.63,SW,226,12.0,12.0,64,0.00,,,0.00,Custom v0.1,2013-01-28 22:50:00,
2013-01-28 16:55:00,72.1,59.5,29.63,South,182,0.0,1.0,64,0.00,,,0.00,Custom v0.1,2013-01-28 22:55:00,
2013-01-28 17:00:00,72.1,59.5,29.63,SSE,154,5.0,5.0,64,0.00,,,0.00,Custom v0.1,2013-01-28 23:00:00,
2013-01-28 17:05:00,72.0,59.4,29.63,South,172,17.0,17.0,64,0.00,,,0.00,Custom v0.1,2013-01-28 23:05:00,
2013-01-28 17:15:00,71.6,59.4,29.63,South,186,3.0,3.0,65,0.00,,,0.00,Custom v0.1,2013-01-28 23:15:00,
2013-01-28 17:20:00,71.5,59.3,29.62,SW,214,8.0,8.0,65,0.00,,,0.00,Custom v0.1,2013-01-28 23:20:00,
2013-01-28 17:25:00,71.3,59.1,29.62,SSW,195,18.0,18.0,65,0.00,,,0.00,Custom v0.1,2013-01-28 23:25:00,
2013-01-28 17:30:00,71.3,58.7,29.62,SSW,192,5.0,5.0,64,0.00,,,0.00,Custom v0.1,2013-01-28 23:30:00,
2013-01-28 17:35:00,71.1,58.5,29.62,South,171,10.0,10.0,64,0.00,,,0.00,Custom v0.1,2013-01-28 23:35:00,
2013-01-28 17:40:00,70.9,58.3,29.62,South,175,8.0,8.0,64,0.00,,,0.00,Custom v0.1,2013-01-28 23:40:00,
2013-01-28 17:45:00,70.9,58.3,29.62,SW,224,1.0,3.0,64,0.00,,,0.00,Custom v0.1,2013-01-28 23:45:00,
2013-01-28 17:50:00,70.8,58.2,29.61,South,190,0.0,3.0,64,0.00,,,0.00,Custom v0.1,2013-01-28 23:50:00,
2013-01-28 17:55:00,70.6,58.5,29.61,South,186,10.0,10.0,65,0.00,,,0.00,Custom v0.1,2013-01-28 23:55:00,
2013-01-28 18:00:00,70.3,58.2,29.61,SSE,165,6.0,6.0,65,0.00,,,0.00,Custom v0.1,2013-01-29 00:00:00,
2013-01-28 18:05:00,70.1,58.4,29.61,SSW,192,1.0,3.0,66,0.00,,,0.00,Custom v0.1,2013-01-29 00:05:00,
2013-01-28 18:10:00,69.9,58.2,29.61,South,179,17.0,17.0,66,0.00,,,0.00,Custom v0.1,2013-01-29 00:10:00,
2013-01-28 18:15:00,69.9,58.6,29.61,South,188,11.0,11.0,67,0.00,,,0.00,Custom v0.1,2013-01-29 00:15:00,
2013-01-28 18:20:00,69.8,58.5,29.61,SSW,193,4.0,4.0,67,0.00,,,0.00,Custom v0.1,2013-01-29 00:20:00,
2013-01-28 18:25:00,69.8,58.5,29.61,South,180,13.0,13.0,67,0.00,,,0.00,Custom v0.1,2013-01-29 00:25:00,
2013-01-28 18:30:00,69.8,58.5,29.61,South,190,3.0,3.0,67,0.00,,,0.00,Custom v0.1,2013-01-29 00:30:00,
2013-01-28 18:35:00,69.4,58.6,29.61,South,178,10.0,10.0,68,0.00,,,0.00,Custom v0.1,2013-01-29 00:35:00,
2013-01-28 18:45:00,69.1,58.3,29.61,SSW,197,3.0,3.0,68,0.00,,,0.00,Custom v0.1,2013-01-29 00:45:00,
2013-01-28 18:50:00,68.9,58.1,29.61,South,179,5.0,5.0,68,0.00,,,0.00,Custom v0.1,2013-01-29 00:50:00,
2013-01-28 18:55:00,69.1,58.3,29.61,SSE,168,0.0,3.0,68,0.00,,,0.00,Custom v0.1,2013-01-29 00:55:00,
2013-01-28 19:00:00,68.9,58.1,29.61,South,183,12.0,12.0,68,0.00,,,0.00,Custom v0.1,2013-01-29 01:00:00,
2013-01-28 19:05:00,69.3,58.1,29.61,South,173,7.0,7.0,67,0.00,,,0.00,Custom v0.1,2013-01-29 01:05:00,
2013-01-28 19:10:00,69.1,57.9,29.61,South,169,7.0,7.0,67,0.00,,,0.00,Custom v0.1,2013-01-29 01:10:00,
2013-01-28 19:15:00,69.1,57.9,29.61,SSE,162,4.0,4.0,67,0.00,,,0.00,Custom v0.1,2013-01-29 01:15:00,
2013-01-28 19:20:00,69.1,57.9,29.60,SSW,200,2.0,3.0,67,0.00,,,0.00,Custom v0.1,2013-01-29 01:20:00,
2013-01-28 19:25:00,68.9,58.1,29.60,South,171,0.0,3.0,68,0.00,,,0.00,Custom v0.1,2013-01-29 01:25:00,
2013-01-28 19:30:00,68.8,58.0,29.60,SSW,192,0.0,3.0,68,0.00,,,0.00,Custom v0.1,2013-01-29 01:30:00,
2013-01-28 19:35:00,68.6,57.8,29.60,SSE,161,3.0,3.0,68,0.00,,,0.00,Custom v0.1,2013-01-29 01:35:00,
2013-01-28 19:40:00,68.6,57.8,29.60,SSE,156,2.0,3.0,68,0.00,,,0.00,Custom v0.1,2013-01-29 01:40:00,
2013-01-28 19:45:00,68.4,58.0,29.60,SSE,168,5.0,5.0,69,0.00,,,0.00,Custom v0.1,2013-01-29 01:45:00,
2013-01-28 19:50:00,68.3,57.9,29.60,SW,227,3.0,3.0,69,0.00,,,0.00,Custom v0.1,2013-01-29 01:50:00,
2013-01-28 19:55:00,68.3,57.9,29.60,South,169,0.0,3.0,69,0.00,,,0.00,Custom v0.1,2013-01-29 01:55:00,
2013-01-28 20:00:00,68.3,57.9,29.60,SSW,209,9.0,9.0,69,0.00,,,0.00,Custom v0.1,2013-01-29 02:00:00,
2013-01-28 20:05:00,68.6,58.2,29.60,SW,233,3.0,11.0,69,0.00,,,0.00,Custom v0.1,2013-01-29 02:05:00,
2013-01-28 20:15:00,68.4,58.4,29.60,SSW,202,0.0,12.0,70,0.00,,,0.00,Custom v0.1,2013-01-29 02:15:00,
2013-01-28 20:20:00,68.4,58.4,29.60,South,182,0.0,1.0,70,0.00,,,0.00,Custom v0.1,2013-01-29 02:20:00,
2013-01-28 20:25:00,68.4,58.4,29.60,South,178,16.0,16.0,70,0.00,,,0.00,Custom v0.1,2013-01-29 02:25:00,
2013-01-28 20:30:00,68.6,58.6,29.60,South,180,4.0,4.0,70,0.00,,,0.00,Custom v0.1,2013-01-29 02:30:00,
2013-01-28 20:35:00,68.4,58.4,29.60,South,185,1.0,5.0,70,0.00,,,0.00,Custom v0.1,2013-01-29 02:35:00,
2013-01-28 20:45:00,68.6,58.6,29.60,South,169,11.0,11.0,70,0.00,,,0.00,Custom v0.1,2013-01-29 02:45:00,
2013-01-28 20:50:00,68.8,58.8,29.61,South,172,4.0,6.0,70,0.00,,,0.00,Custom v0.1,2013-01-29 02:50:00,
2013-01-28 20:55:00,68.8,58.8,29.61,SSW,200,8.0,8.0,70,0.00,,,0.00,Custom v0.1,2013-01-29 02:55:00,
2013-01-28 21:00:00,68.8,59.2,29.61,South,173,11.0,11.0,71,0.00,,,0.00,Custom v0.1,2013-01-29 03:00:00,
2013-01-28 21:05:00,68.8,59.2,29.61,South,178,11.0,11.0,71,0.00,,,0.00,Custom v0.1,2013-01-29 03:05:00,
2013-01-28 21:10:00,68.9,58.9,29.61,SSE,166,1.0,17.0,70,0.00,,,0.00,Custom v0.1,2013-01-29 03:10:00,
2013-01-28 21:20:00,69.1,59.1,29.61,SW,221,0.0,0.0,70,0.00,,,0.00,Custom v0.1,2013-01-29 03:20:00,
2013-01-28 21:25:00,69.1,59.1,29.61,South,185,0.0,11.0,70,0.00,,,0.00,Custom v0.1,2013-01-29 03:25:00,
2013-01-28 21:30:00,69.1,59.1,29.61,SSE,162,13.0,13.0,70,0.00,,,0.00,Custom v0.1,2013-01-29 03:30:00,
2013-01-28 21:40:00,69.1,59.1,29.61,South,176,11.0,11.0,70,0.00,,,0.00,Custom v0.1,2013-01-29 03:40:00,
2013-01-28 21:45:00,69.1,59.1,29.61,South,176,5.0,8.0,70,0.00,,,0.00,Custom v0.1,2013-01-29 03:45:00,
2013-01-28 21:50:00,68.9,59.3,29.60,South,179,8.0,8.0,71,0.00,,,0.00,Custom v0.1,2013-01-29 03:50:00,
2013-01-28 21:55:00,68.9,59.3,29.60,South,175,16.0,16.0,71,0.00,,,0.00,Custom v0.1,2013-01-29 03:55:00,
2013-01-28 22:00:00,68.9,59.3,29.60,SSW,196,10.0,10.0,71,0.00,,,0.00,Custom v0.1,2013-01-29 04:00:00,
2013-01-28 22:05:00,68.8,59.2,29.60,SSW,210,0.0,1.0,71,0.00,,,0.00,Custom v0.1,2013-01-29 04:05:00,
2013-01-28 22:10:00,68.9,59.3,29.60,SSE,168,0.0,6.0,71,0.00,,,0.00,Custom v0.1,2013-01-29 04:10:00,
2013-01-28 22:15:00,68.9,59.3,29.60,South,183,7.0,7.0,71,0.00,,,0.00,Custom v0.1,2013-01-29 04:15:00,
2013-01-28 22:20:00,69.1,59.5,29.59,SSE,164,10.0,10.0,71,0.00,,,0.00,Custom v0.1,2013-01-29 04:20:00,
2013-01-28 22:25:00,69.1,59.5,29.59,SSE,164,20.0,20.0,71,0.00,,,0.00,Custom v0.1,2013-01-29 04:25:00,
2013-01-28 22:30:00,69.3,59.7,29.59,South,173,7.0,7.0,71,0.00,,,0.00,Custom v0.1,2013-01-29 04:30:00,
2013-01-28 22:35:00,69.1,59.5,29.59,SW,228,11.0,11.0,71,0.00,,,0.00,Custom v0.1,2013-01-29 04:35:00,
2013-01-28 22:40:00,69.1,59.9,29.59,SSW,195,1.0,6.0,72,0.00,,,0.00,Custom v0.1,2013-01-29 04:40:00,
2013-01-28 22:45:00,69.1,59.9,29.59,South,171,12.0,12.0,72,0.00,,,0.00,Custom v0.1,2013-01-29 04:45:00,
2013-01-28 22:50:00,68.9,59.7,29.59,SW,221,0.0,6.0,72,0.00,,,0.00,Custom v0.1,2013-01-29 04:50:00,
2013-01-28 22:55:00,68.9,59.7,29.59,SSW,203,12.0,12.0,72,0.00,,,0.00,Custom v0.1,2013-01-29 04:55:00,
2013-01-28 23:05:00,68.8,59.6,29.59,SE,134,5.0,6.0,72,0.00,,,0.00,Custom v0.1,2013-01-29 05:05:00,
2013-01-28 23:10:00,68.8,59.9,29.59,SSW,206,3.0,6.0,73,0.00,,,0.00,Custom v0.1,2013-01-29 05:10:00,
2013-01-28 23:15:00,68.4,59.6,29.59,SSW,196,24.0,24.0,73,0.00,,,0.00,Custom v0.1,2013-01-29 05:15:00,
2013-01-28 23:20:00,68.3,59.8,29.58,South,176,8.0,8.0,74,0.00,,,0.00,Custom v0.1,2013-01-29 05:20:00,
2013-01-28 23:25:00,68.1,59.6,29.58,SSW,202,5.0,6.0,74,0.00,,,0.00,Custom v0.1,2013-01-29 05:25:00,
2013-01-28 23:30:00,68.1,59.6,29.58,South,189,1.0,6.0,74,0.00,,,0.00,Custom v0.1,2013-01-29 05:30:00,
2013-01-28 23:40:00,67.9,59.8,29.58,South,176,0.0,6.0,75,0.00,,,0.00,Custom v0.1,2013-01-29 05:40:00,
2013-01-28 23:45:00,67.8,59.7,29.58,SSW,213,6.0,6.0,75,0.00,,,0.00,Custom v0.1,2013-01-29 05:45:00,
2013-01-28 23:50:00,67.8,59.7,29.58,SSW,200,6.0,6.0,75,0.00,,,0.00,Custom v0.1,2013-01-29 05:50:00,
2013-01-28 23:55:00,67.8,59.7,29.58,SSW,199,17.0,17.0,75,0.00,,,0.00,Custom v0.1,2013-01-29 05:55:00,